Time,TemperatureF,DewpointF,PressureIn,WindDirection,WindDirectionDegrees,WindSpeedMPH,WindSpeedGustMPH,Humidity,HourlyPrecipIn,Conditions,Clouds,dailyrainin,SoftwareType,DateUTC
2013-12-02 01:50:00,15.1,6.4,30.50,NNE,24,0.0,0.0,68,0.00,CLR,,0.00,WeatherDisplay:10.37,2013-12-02 10:50:00,
2013-12-02 02:18:00,15.3,6.6,30.50,NNE,24,0.0,0.0,68,0.00,CLR,,0.00,WeatherDisplay:10.37,2013-12-02 11:18:00,
2013-12-02 02:55:00,15.2,6.5,30.50,NNE,24,0.0,0.0,68,0.00,CLR,,0.00,WeatherDisplay:10.37,2013-12-02 11:55:00,
2013-12-02 04:15:00,14.9,6.6,30.52,NNE,23,0.0,0.0,69,0.00,CLR,,0.00,WeatherDisplay:10.37,2013-12-02 13:15:00,
2013-12-02 04:21:00,14.8,6.5,30.51,NNE,24,0.0,0.0,69,0.00,CLR,,0.00,WeatherDisplay:10.37,2013-12-02 13:21:00,
2013-12-02 07:07:00,13.7,6.6,30.54,NNE,24,0.0,0.0,73,0.00,CLR,,0.00,WeatherDisplay:10.37,2013-12-02 16:07:00,
2013-12-02 07:25:00,13.4,6.4,30.55,NNE,24,0.0,0.0,73,0.00,CLR,,0.00,WeatherDisplay:10.37,2013-12-02 16:25:00,
2013-12-02 08:02:00,12.6,6.2,30.57,NNE,24,0.0,0.0,75,0.00,CLR,,0.00,WeatherDisplay:10.37,2013-12-02 17:02:00,
2013-12-02 09:01:00,12.2,6.1,30.59,NNE,23,0.0,0.0,76,0.00,CLR,,0.00,WeatherDisplay:10.37,2013-12-02 18:01:00,
2013-12-02 12:17:00,15.3,8.8,30.62,NNE,24,0.0,0.0,75,0.00,CLR,,0.00,WeatherDisplay:10.37,2013-12-02 21:17:00,
2013-12-02 12:41:00,16.0,9.2,30.63,NNE,24,0.0,0.0,74,0.00,CLR,,0.00,WeatherDisplay:10.37,2013-12-02 21:41:00,
2013-12-02 13:11:00,16.8,9.6,30.63,NNE,24,0.0,0.0,73,0.00,CLR,,0.00,WeatherDisplay:10.37,2013-12-02 22:11:00,
2013-12-02 14:13:00,18.3,11.1,30.64,NNE,24,0.0,0.0,73,0.00,CLR,,0.00,WeatherDisplay:10.37,2013-12-02 23:13:00,
2013-12-02 14:40:00,18.0,11.1,30.63,NNE,24,0.0,0.0,74,0.00,CLR,,0.00,WeatherDisplay:10.37,2013-12-02 23:40:00,
2013-12-02 16:23:00,17.7,10.8,30.63,NNE,23,0.0,0.0,74,0.00,CLR,,0.00,WeatherDisplay:10.37,2013-12-03 01:23:00,
2013-12-02 16:42:00,17.7,10.8,30.63,NNE,23,0.0,0.0,74,0.00,CLR,,0.00,WeatherDisplay:10.37,2013-12-03 01:42:00,
2013-12-02 17:21:00,17.7,10.8,30.63,NNE,23,0.0,0.0,74,0.00,CLR,,0.00,WeatherDisplay:10.37,2013-12-03 02:21:00,
2013-12-02 17:26:00,17.7,10.8,30.63,NNE,23,0.0,0.0,74,0.00,CLR,,0.00,WeatherDisplay:10.37,2013-12-03 02:26:00,
2013-12-02 18:21:00,17.7,10.8,30.63,NNE,23,0.0,0.0,74,0.00,CLR,,0.00,WeatherDisplay:10.37,2013-12-03 03:21:00,
2013-12-02 19:04:00,17.7,10.8,30.63,NNE,23,0.0,0.0,74,0.00,CLR,,0.00,WeatherDisplay:10.37,2013-12-03 04:04:00,
2013-12-02 19:09:00,17.7,10.8,30.63,NNE,23,0.0,0.0,74,0.00,CLR,,0.00,WeatherDisplay:10.37,2013-12-03 04:09:00,
2013-12-02 20:28:00,17.7,10.8,30.63,NNE,23,0.0,0.0,74,0.00,CLR,,0.00,WeatherDisplay:10.37,2013-12-03 05:28:00,
2013-12-02 20:57:00,17.7,10.8,30.63,NNE,23,0.0,0.0,74,0.00,CLR,,0.00,WeatherDisplay:10.37,2013-12-03 05:57:00,
2013-12-02 21:19:00,17.7,10.8,30.63,NNE,23,0.0,0.0,74,0.00,CLR,,0.00,WeatherDisplay:10.37,2013-12-03 06:19:00,
2013-12-02 21:25:00,17.7,10.8,30.63,NNE,23,0.0,0.0,74,0.00,CLR,,0.00,WeatherDisplay:10.37,2013-12-03 06:25:00,
2013-12-02 21:43:00,17.7,10.8,30.63,NNE,23,0.0,0.0,74,0.00,CLR,,0.00,WeatherDisplay:10.37,2013-12-03 06:43:00,
2013-12-02 22:35:00,17.7,10.8,30.63,NNE,23,0.0,0.0,74,0.00,CLR,,0.00,WeatherDisplay:10.37,2013-12-03 07:35:00,
2013-12-02 22:55:00,17.7,10.8,30.63,NNE,23,0.0,0.0,74,0.00,CLR,,0.00,WeatherDisplay:10.37,2013-12-03 07:55:00,